Time;durP1;ratioP1;P1;durP2;ratioP2;P2;SDS_P1;SDS_P2;PMS_P1;PMS_P2;Temp;Humidity;BMP_temperature;BMP_pressure;BME280_temperature;BME280_humidity;BME280_pressure;Samples;Min_cycle;Max_cycle;Signal;HPM_P1;HPM_P2
2021/08/11 00:01:10;;;;;;;7.95;5.00;;;;;;;30.60;36.70;99392.00;5073024;28;20145;-79
2021/08/11 00:03:36;;;;;;;8.43;5.07;;;;;;;30.59;36.76;99404.81;5090878;28;20503;-78
2021/08/11 00:06:01;;;;;;;11.10;5.53;;;;;;;30.56;36.94;99399.16;5090985;28;20024;-78
2021/08/11 00:08:27;;;;;;;8.48;5.25;;;;;;;30.29;37.07;99370.16;5090981;28;20549;-79
2021/08/11 00:10:52;;;;;;;8.07;5.00;;;;;;;30.21;36.96;99357.31;5090925;28;20034;-78
2021/08/11 00:13:17;;;;;;;8.77;5.55;;;;;;;30.27;37.11;99372.38;5093505;28;20030;-79
2021/08/11 00:15:43;;;;;;;6.72;5.00;;;;;;;30.26;37.06;99379.75;5094751;28;20123;-78
2021/08/11 00:18:08;;;;;;;7.65;4.95;;;;;;;30.11;37.11;99352.91;5094663;28;20035;-79
2021/08/11 00:20:35;;;;;;;7.95;4.93;;;;;;;30.36;37.13;99390.38;5094515;28;20031;-78
2021/08/11 00:23:01;;;;;;;7.97;4.88;;;;;;;30.30;37.34;99394.38;5076402;28;20464;-79
2021/08/11 00:25:26;;;;;;;7.05;4.68;;;;;;;30.32;37.14;99394.84;5094519;28;20058;-74
2021/08/11 00:27:51;;;;;;;7.10;5.32;;;;;;;30.41;37.50;99415.88;5094323;28;20024;-74
2021/08/11 00:30:17;;;;;;;10.25;5.03;;;;;;;30.34;37.59;99411.69;5094313;28;20035;-75
2021/08/11 00:32:42;;;;;;;8.13;5.07;;;;;;;30.37;37.57;99415.72;5076151;28;20027;-74
2021/08/11 00:35:08;;;;;;;7.15;4.78;;;;;;;30.24;37.38;99401.06;5094151;28;20020;-75
2021/08/11 00:37:33;;;;;;;6.47;4.82;;;;;;;30.29;37.28;99411.81;5094495;28;20488;-75
2021/08/11 00:39:59;;;;;;;8.13;5.25;;;;;;;29.96;37.42;99372.34;5094230;28;20128;-76
2021/08/11 00:42:27;;;;;;;8.98;4.93;;;;;;;30.26;37.45;99415.16;5094154;28;20024;-75
2021/08/11 00:44:53;;;;;;;8.40;4.97;;;;;;;30.06;37.95;99385.72;5094251;28;20485;-75
2021/08/11 00:47:21;;;;;;;5.75;5.07;;;;;;;30.18;37.48;99418.63;5093973;28;20024;-75
2021/08/11 00:49:46;;;;;;;10.25;6.05;;;;;;;29.91;37.87;99397.75;5094002;28;20503;-75
2021/08/11 00:52:12;;;;;;;13.02;5.93;;;;;;;29.91;37.95;99432.34;5094024;28;20024;-74
2021/08/11 00:54:39;;;;;;;8.07;5.20;;;;;;;29.87;38.11;99431.34;5093852;28;20051;-75
2021/08/11 00:57:05;;;;;;;7.50;5.68;;;;;;;29.42;38.13;99364.03;5093835;28;20035;-73
2021/08/11 00:59:35;;;;;;;9.63;5.80;;;;;;;29.48;38.29;99372.91;5075436;28;20027;-75
2021/08/11 01:02:02;;;;;;;9.10;6.60;;;;;;;29.19;38.18;99335.19;5093576;28;20095;-75
2021/08/11 01:04:29;;;;;;;7.70;6.05;;;;;;;29.57;38.20;99419.22;5093768;28;20024;-75
2021/08/11 01:06:54;;;;;;;8.55;5.95;;;;;;;29.13;38.53;99350.00;5075454;28;20031;-75
2021/08/11 01:09:20;;;;;;;6.43;5.80;;;;;;;29.24;38.58;99377.75;5093539;28;20024;-75
2021/08/11 01:11:49;;;;;;;7.97;5.97;;;;;;;29.33;38.43;99397.69;5075227;28;20109;-75
2021/08/11 01:14:15;;;;;;;7.50;6.18;;;;;;;29.33;38.90;99409.38;5093428;28;20021;-74
2021/08/11 01:16:41;;;;;;;9.82;6.65;;;;;;;29.31;38.57;99413.50;5093321;28;20081;-74
2021/08/11 01:19:06;;;;;;;10.77;6.47;;;;;;;29.19;38.61;99407.78;5093566;28;20016;-74
2021/08/11 01:21:44;;;;;;;10.52;6.20;;;;;;;28.80;38.85;99358.22;5093539;28;20023;-74
2021/08/11 01:24:10;;;;;;;7.00;6.28;;;;;;;29.04;38.94;99400.75;5093114;28;20039;-75
2021/08/11 01:26:56;;;;;;;11.68;6.65;;;;;;;28.99;39.30;99387.25;5093250;28;20461;-74
2021/08/11 01:29:31;;;;;;;7.65;6.50;;;;;;;28.95;39.02;99386.22;5093039;28;20108;-74
2021/08/11 01:32:03;;;;;;;9.95;6.68;;;;;;;28.91;39.14;99388.75;5092970;28;20503;-74
2021/08/11 01:34:40;;;;;;;7.50;6.25;;;;;;;28.88;39.29;99386.63;5092929;28;20027;-73
2021/08/11 01:37:09;;;;;;;11.98;6.40;;;;;;;28.54;39.18;99338.09;5093024;28;20026;-74
2021/08/11 01:39:47;;;;;;;8.18;5.88;;;;;;;28.71;39.30;99386.41;5074830;28;20027;-74
2021/08/11 01:42:18;;;;;;;8.43;6.85;;;;;;;28.67;39.31;99371.81;5092886;28;20034;-73
2021/08/11 01:44:52;;;;;;;12.18;6.40;;;;;;;28.61;39.76;99371.09;5092773;28;20024;-73
2021/08/11 01:47:22;;;;;;;9.00;6.18;;;;;;;28.58;39.75;99370.91;5092722;28;20051;-75
2021/08/11 01:49:49;;;;;;;10.60;6.47;;;;;;;28.56;39.60;99373.13;5092563;28;20074;-73
2021/08/11 01:52:16;;;;;;;12.13;7.03;;;;;;;28.39;39.90;99351.97;5092589;28;20484;-75
2021/08/11 01:54:43;;;;;;;7.53;6.07;;;;;;;28.50;39.81;99386.00;5092502;28;20488;-75
2021/08/11 01:57:10;;;;;;;8.00;6.15;;;;;;;28.45;39.69;99383.38;5074439;28;20035;-75
2021/08/11 01:59:36;;;;;;;9.45;6.90;;;;;;;28.20;39.92;99368.28;5092702;28;20016;-76
2021/08/11 02:02:02;;;;;;;7.57;6.80;;;;;;;28.35;40.00;99394.41;5092415;28;20488;-75
2021/08/11 02:04:29;;;;;;;11.40;7.13;;;;;;;28.33;40.02;99394.72;5092234;28;20097;-75
2021/08/11 02:06:56;;;;;;;7.43;6.65;;;;;;;28.02;40.09;99355.56;5092635;28;20031;-75
2021/08/11 02:09:22;;;;;;;10.05;6.35;;;;;;;28.20;40.23;99378.31;5092548;28;20617;-76
2021/08/11 02:11:47;;;;;;;10.70;6.30;;;;;;;28.23;40.16;99385.88;5092430;28;20037;-75
2021/08/11 02:14:13;;;;;;;14.10;7.28;;;;;;;28.18;40.12;99382.16;5092414;28;20024;-75
2021/08/11 02:16:40;;;;;;;12.63;6.88;;;;;;;28.15;40.09;99382.75;5092370;28;20023;-76
2021/08/11 02:19:06;;;;;;;10.20;6.95;;;;;;;28.14;39.96;99383.03;5092373;28;20012;-76
2021/08/11 02:21:31;;;;;;;12.50;7.18;;;;;;;28.11;40.13;99380.91;5092363;28;20043;-76
2021/08/11 02:23:57;;;;;;;8.93;7.10;;;;;;;28.00;40.24;99363.19;5092528;28;20012;-72
2021/08/11 02:26:36;;;;;;;9.65;6.75;;;;;;;27.98;40.21;99368.13;5092089;28;20084;-74
2021/08/11 02:29:13;;;;;;;11.05;6.90;;;;;;;28.06;40.34;99381.00;5092131;28;20587;-72
2021/08/11 02:31:56;;;;;;;11.65;6.90;;;;;;;28.02;40.34;99386.22;5073768;28;20042;-75
2021/08/11 02:34:39;;;;;;;12.63;7.25;;;;;;;27.94;40.45;99394.22;5091946;28;20507;-74
2021/08/11 02:37:14;;;;;;;8.80;6.55;;;;;;;27.76;40.60;99379.59;5091884;28;20023;-74
2021/08/11 02:39:43;;;;;;;8.40;6.82;;;;;;;27.70;40.46;99384.28;5092056;28;20016;-74
2021/08/11 02:42:13;;;;;;;9.98;7.18;;;;;;;27.25;40.87;99333.38;5091856;28;20028;-75
2021/08/11 02:44:44;;;;;;;9.32;6.70;;;;;;;27.56;40.96;99382.59;5092093;28;20035;-74
2021/08/11 02:47:10;;;;;;;11.35;7.30;;;;;;;27.44;41.02;99369.44;5091925;28;20489;-75
2021/08/11 02:49:38;;;;;;;11.30;6.97;;;;;;;27.50;41.37;99396.22;5091542;28;20024;-75
2021/08/11 02:52:04;;;;;;;7.47;6.75;;;;;;;27.11;41.35;99342.25;5092134;28;20089;-74
2021/08/11 02:54:31;;;;;;;7.35;6.68;;;;;;;27.30;41.72;99384.81;5091582;28;20089;-74
2021/08/11 02:57:00;;;;;;;10.45;7.25;;;;;;;26.95;41.68;99335.38;5091779;28;20028;-74
2021/08/11 02:59:26;;;;;;;7.25;6.50;;;;;;;27.18;41.92;99377.91;5091660;28;20020;-74
2021/08/11 03:01:52;;;;;;;8.00;6.93;;;;;;;27.12;42.08;99375.56;5091502;28;20045;-74
2021/08/11 03:04:17;;;;;;;9.30;6.88;;;;;;;27.07;42.13;99376.44;5091677;28;20016;-74
2021/08/11 03:06:43;;;;;;;12.35;7.47;;;;;;;26.97;42.24;99379.25;5091551;28;20404;-75
2021/08/11 03:09:09;;;;;;;13.80;7.80;;;;;;;26.86;42.40;99375.03;5091581;28;20112;-74
2021/08/11 03:11:36;;;;;;;11.05;6.85;;;;;;;26.66;42.46;99343.56;5091752;28;20032;-75
2021/08/11 03:14:04;;;;;;;8.32;7.13;;;;;;;26.92;42.37;99379.31;5091565;28;20417;-74
2021/08/11 03:16:30;;;;;;;10.60;7.20;;;;;;;26.88;42.66;99380.97;5073310;28;20464;-74
2021/08/11 03:18:55;;;;;;;10.18;7.35;;;;;;;26.88;42.41;99384.50;5091232;28;20055;-74
2021/08/11 03:21:21;;;;;;;9.75;7.30;;;;;;;26.83;42.57;99386.47;5091627;28;20020;-73
2021/08/11 03:23:46;;;;;;;8.07;7.25;;;;;;;26.82;42.58;99387.56;5091354;28;20480;-75
2021/08/11 03:26:12;;;;;;;9.15;6.90;;;;;;;26.83;42.73;99397.28;5091266;28;20047;-74
2021/08/11 03:28:38;;;;;;;9.30;7.05;;;;;;;26.45;42.83;99342.16;5091353;28;20020;-73
2021/08/11 03:31:03;;;;;;;9.63;6.95;;;;;;;26.77;43.05;99404.69;5091432;28;20024;-73
2021/08/11 03:33:28;;;;;;;11.82;7.40;;;;;;;26.72;42.81;99385.75;5091608;28;20027;-75
2021/08/11 03:35:54;;;;;;;9.38;7.45;;;;;;;26.74;43.15;99396.28;5091151;28;20436;-74
2021/08/11 03:38:19;;;;;;;8.05;7.10;;;;;;;26.71;42.96;99394.16;5091138;28;20095;-74
2021/08/11 03:40:45;;;;;;;9.25;7.40;;;;;;;26.34;43.24;99343.38;5072835;28;20396;-75
2021/08/11 03:43:10;;;;;;;10.82;6.97;;;;;;;26.31;42.93;99335.78;5073119;28;20126;-74
2021/08/11 03:45:36;;;;;;;8.45;7.60;;;;;;;26.47;43.06;99367.88;5091203;28;20028;-74
2021/08/11 03:48:02;;;;;;;8.93;7.72;;;;;;;26.66;43.21;99402.34;5094689;28;20459;-74
2021/08/11 03:50:27;;;;;;;11.18;8.02;;;;;;;26.05;43.55;99305.47;5094951;28;20144;-74
2021/08/11 03:52:53;;;;;;;8.93;7.13;;;;;;;26.23;43.60;99350.75;5094873;28;20030;-74
2021/08/11 03:55:18;;;;;;;11.35;7.40;;;;;;;26.58;43.48;99412.69;5094972;28;20107;-74
2021/08/11 03:57:44;;;;;;;12.48;8.10;;;;;;;26.56;43.64;99417.59;5094959;28;20062;-74
2021/08/11 04:00:11;;;;;;;8.40;7.60;;;;;;;26.48;43.98;99420.13;5095021;28;20119;-73
2021/08/11 04:02:37;;;;;;;12.10;7.88;;;;;;;26.46;44.20;99425.00;5094683;28;20020;-75
2021/08/11 04:05:07;;;;;;;13.63;8.00;;;;;;;26.39;44.36;99425.34;5094684;28;20027;-74
2021/08/11 04:07:35;;;;;;;10.52;7.30;;;;;;;26.47;43.69;99418.50;5094567;28;20059;-73
2021/08/11 04:10:01;;;;;;;9.65;6.95;;;;;;;26.54;43.88;99422.50;5094491;28;20020;-73
2021/08/11 04:12:26;;;;;;;10.07;7.35;;;;;;;26.33;43.94;99388.59;5076414;28;20160;-74
2021/08/11 04:14:52;;;;;;;10.68;7.13;;;;;;;26.56;43.83;99414.06;5094537;28;20051;-73
2021/08/11 04:17:17;;;;;;;8.30;6.90;;;;;;;26.41;44.04;99385.25;5094500;28;20027;-76
2021/08/11 04:19:43;;;;;;;11.38;7.45;;;;;;;26.61;44.07;99411.31;5076294;28;20024;-76
2021/08/11 04:22:08;;;;;;;14.00;9.07;;;;;;;26.67;43.78;99412.06;5094295;28;20556;-76
2021/08/11 04:24:33;;;;;;;10.15;9.00;;;;;;;26.67;44.07;99403.94;5094878;28;20024;-75
2021/08/11 04:26:59;;;;;;;15.82;9.65;;;;;;;26.56;43.82;99392.41;5094363;28;20428;-75
2021/08/11 04:29:24;;;;;;;15.95;9.55;;;;;;;26.72;43.80;99407.41;5094209;28;20028;-74
2021/08/11 04:31:50;;;;;;;14.07;8.80;;;;;;;26.24;43.60;99322.59;5094199;28;20023;-75
2021/08/11 04:34:15;;;;;;;12.68;8.73;;;;;;;26.56;43.84;99363.44;5094233;28;20107;-76
2021/08/11 04:36:40;;;;;;;12.32;8.82;;;;;;;26.87;43.63;99406.47;5094180;28;20264;-75
2021/08/11 04:39:06;;;;;;;13.32;8.90;;;;;;;26.60;43.83;99377.22;5094202;28;20024;-76
2021/08/11 04:41:31;;;;;;;13.30;8.40;;;;;;;26.94;43.61;99414.25;5094049;28;20084;-73
2021/08/11 04:43:57;;;;;;;11.60;8.70;;;;;;;26.64;43.68;99372.03;5094043;28;20020;-75
2021/08/11 04:46:22;;;;;;;15.15;8.32;;;;;;;26.76;43.55;99386.00;5094102;28;20030;-74
2021/08/11 04:48:48;;;;;;;10.27;7.75;;;;;;;26.92;43.81;99414.53;5075690;28;20043;-75
2021/08/11 04:51:13;;;;;;;13.00;8.00;;;;;;;26.97;43.56;99425.31;5094195;28;20423;-74
2021/08/11 04:53:39;;;;;;;10.93;7.40;;;;;;;26.88;43.86;99408.88;5075860;28;20016;-76
2021/08/11 04:56:04;;;;;;;11.35;7.88;;;;;;;27.08;43.52;99431.44;5093913;28;20164;-76
2021/08/11 04:58:30;;;;;;;9.02;8.18;;;;;;;27.13;43.46;99434.91;5093085;28;20016;-76
2021/08/11 05:00:55;;;;;;;13.68;7.68;;;;;;;27.14;43.51;99439.22;5093885;28;20019;-74
2021/08/11 05:03:20;;;;;;;12.52;7.60;;;;;;;27.19;43.48;99432.94;5093712;28;20041;-73
2021/08/11 05:05:46;;;;;;;10.23;7.88;;;;;;;27.20;43.27;99429.13;5093531;28;20019;-76
2021/08/11 05:08:11;;;;;;;11.90;8.00;;;;;;;27.26;43.22;99425.25;5093721;28;20480;-76
2021/08/11 05:10:37;;;;;;;9.38;7.75;;;;;;;27.22;43.32;99422.31;5093684;28;20018;-75
2021/08/11 05:13:02;;;;;;;8.25;7.45;;;;;;;27.36;43.33;99433.25;5093572;28;20099;-76
2021/08/11 05:15:27;;;;;;;14.57;8.60;;;;;;;27.41;43.32;99425.06;5093315;28;20085;-76
2021/08/11 05:17:53;;;;;;;12.18;7.90;;;;;;;27.15;43.22;99370.38;5075028;28;20035;-76
2021/08/11 05:20:19;;;;;;;10.23;7.65;;;;;;;27.54;42.91;99428.97;5093219;28;20028;-76
2021/08/11 05:22:47;;;;;;;12.35;7.82;;;;;;;27.38;43.08;99376.03;5075136;28;20028;-75
2021/08/11 05:25:12;;;;;;;12.57;7.88;;;;;;;27.77;43.23;99435.47;5081141;28;20493;-75
2021/08/11 05:27:38;;;;;;;8.82;7.60;;;;;;;27.50;43.04;99381.84;5074290;28;20028;-76
2021/08/11 05:30:05;;;;;;;9.73;8.10;;;;;;;27.95;42.98;99437.34;5087770;28;20016;-76
2021/08/11 05:32:31;;;;;;;13.52;8.35;;;;;;;28.06;42.56;99438.00;5078659;28;20485;-72
2021/08/11 05:34:56;;;;;;;14.32;10.48;;;;;;;27.93;42.67;99409.72;5092776;28;20024;-74
2021/08/11 05:37:21;;;;;;;16.42;10.48;;;;;;;28.19;42.28;99450.81;5092801;28;20544;-76
2021/08/11 05:39:47;;;;;;;15.68;10.77;;;;;;;28.11;42.41;99421.63;5074681;28;20133;-76
2021/08/11 05:42:12;;;;;;;11.75;8.30;;;;;;;28.33;42.26;99448.22;5069312;28;20024;-76
2021/08/11 05:44:38;;;;;;;13.50;8.65;;;;;;;28.37;42.09;99454.66;5072649;28;20091;-75
2021/08/11 05:47:04;;;;;;;12.00;8.25;;;;;;;28.32;42.05;99441.16;5076802;28;20093;-76
2021/08/11 05:49:31;;;;;;;10.52;7.60;;;;;;;28.53;42.15;99452.50;5088939;28;20024;-72
2021/08/11 05:51:56;;;;;;;17.23;7.78;;;;;;;28.55;42.13;99451.09;5084893;28;20122;-76
2021/08/11 05:54:22;;;;;;;14.35;8.68;;;;;;;28.23;42.20;99403.00;5091197;28;20091;-74
2021/08/11 05:56:47;;;;;;;10.80;8.80;;;;;;;28.57;42.49;99456.22;5092706;28;20008;-76
2021/08/11 05:59:13;;;;;;;11.15;7.88;;;;;;;28.63;42.48;99457.75;5092545;28;20052;-75
2021/08/11 06:01:39;;;;;;;17.05;11.15;;;;;;;28.70;42.20;99450.81;5087278;28;20039;-73
2021/08/11 06:04:04;;;;;;;15.27;10.77;;;;;;;28.37;41.93;99392.19;5092067;28;20408;-75
2021/08/11 06:06:30;;;;;;;15.05;8.85;;;;;;;28.63;41.58;99423.22;5092245;28;20059;-74
2021/08/11 06:08:56;;;;;;;11.68;10.13;;;;;;;28.85;41.75;99448.94;5073598;28;20504;-73
2021/08/11 06:11:21;;;;;;;8.20;6.32;;;;;;;28.81;41.28;99440.56;5090281;28;20063;-74
2021/08/11 06:13:47;;;;;;;7.90;5.80;;;;;;;28.95;41.24;99459.63;5092267;28;20020;-76
2021/08/11 06:16:12;;;;;;;12.20;8.15;;;;;;;28.66;41.40;99419.09;5078985;28;20093;-76
2021/08/11 06:18:38;;;;;;;13.48;10.50;;;;;;;28.89;41.55;99464.34;5071566;28;20481;-75
2021/08/11 06:21:03;;;;;;;14.75;6.65;;;;;;;28.86;41.37;99448.66;5072667;28;20032;-75
2021/08/11 06:23:29;;;;;;;11.52;7.15;;;;;;;29.00;40.97;99471.22;5082742;28;20013;-75
2021/08/11 06:25:54;;;;;;;12.02;7.03;;;;;;;29.00;40.97;99452.19;5095250;28;20028;-76
2021/08/11 06:28:20;;;;;;;10.52;7.22;;;;;;;29.08;40.71;99454.22;5072708;28;20028;-74
2021/08/11 06:30:45;;;;;;;13.07;7.75;;;;;;;29.19;40.64;99449.38;5089544;28;20020;-76
2021/08/11 06:33:10;;;;;;;17.55;7.28;;;;;;;29.27;40.28;99453.31;5071733;28;20027;-75
2021/08/11 06:35:37;;;;;;;12.77;7.03;;;;;;;29.36;40.65;99468.59;5072509;28;20075;-73
2021/08/11 06:38:02;;;;;;;13.90;6.63;;;;;;;29.41;40.64;99464.97;5080115;28;20097;-75
2021/08/11 06:40:28;;;;;;;15.82;7.65;;;;;;;29.49;40.30;99460.75;5091494;28;20054;-73
2021/08/11 06:42:54;;;;;;;19.55;7.22;;;;;;;29.27;40.50;99405.16;5091529;28;20051;-75
2021/08/11 06:45:20;;;;;;;14.27;6.85;;;;;;;29.51;40.09;99434.84;5090547;28;20038;-75
2021/08/11 06:47:45;;;;;;;21.92;7.90;;;;;;;29.52;39.85;99417.41;5081849;28;20039;-76
2021/08/11 06:50:13;;;;;;;18.60;7.53;;;;;;;29.55;39.54;99414.09;5085356;28;20109;-75
2021/08/11 06:52:38;;;;;;;19.60;7.70;;;;;;;29.73;39.45;99434.13;5089417;28;20024;-74
2021/08/11 06:55:12;;;;;;;15.27;7.32;;;;;;;29.92;39.24;99451.09;5089335;28;20103;-74
2021/08/11 06:57:39;;;;;;;14.40;6.88;;;;;;;29.91;39.39;99449.47;5071344;28;20037;-73
2021/08/11 07:00:05;;;;;;;9.48;6.35;;;;;;;29.68;38.77;99407.00;5079589;28;20472;-75
2021/08/11 07:02:31;;;;;;;11.43;6.85;;;;;;;30.12;38.80;99455.28;5089856;28;20480;-75
2021/08/11 07:04:56;;;;;;;13.02;6.75;;;;;;;30.07;38.45;99428.19;5083574;28;20024;-75
2021/08/11 07:07:21;;;;;;;10.52;6.82;;;;;;;30.25;38.39;99448.97;5058687;28;20397;-75
2021/08/11 07:09:47;;;;;;;11.05;6.97;;;;;;;30.33;38.05;99447.41;5052977;28;20107;-73
2021/08/11 07:12:12;;;;;;;11.32;7.10;;;;;;;30.33;38.20;99450.13;5056372;28;20389;-74
2021/08/11 07:14:38;;;;;;;9.70;6.43;;;;;;;30.37;37.66;99448.41;5089169;28;20027;-75
2021/08/11 07:17:03;;;;;;;7.03;6.15;;;;;;;30.43;37.22;99457.25;5084307;28;20524;-75
2021/08/11 07:19:29;;;;;;;7.60;6.18;;;;;;;30.13;37.25;99401.63;5070830;28;20077;-75
2021/08/11 07:21:54;;;;;;;7.25;6.20;;;;;;;30.55;36.83;99454.78;5071561;28;20494;-75
2021/08/11 07:24:20;;;;;;;9.32;6.88;;;;;;;30.54;36.92;99445.81;5079230;28;20504;-75
2021/08/11 07:26:45;;;;;;;8.18;6.20;;;;;;;30.45;36.59;99419.59;5088511;28;20036;-74
2021/08/11 07:29:11;;;;;;;7.38;6.68;;;;;;;30.22;36.73;99367.06;5070556;28;20033;-74
2021/08/11 07:31:37;;;;;;;9.57;6.57;;;;;;;30.51;36.50;99402.84;5070568;28;20488;-74
2021/08/11 07:34:02;;;;;;;9.63;6.82;;;;;;;30.84;36.60;99441.50;5079003;28;20024;-74
2021/08/11 07:36:28;;;;;;;6.80;6.13;;;;;;;30.88;36.40;99438.94;5090836;28;20447;-76
2021/08/11 07:38:53;;;;;;;8.52;5.97;;;;;;;30.98;36.37;99444.91;5072437;28;20408;-75
2021/08/11 07:41:19;;;;;;;7.95;6.20;;;;;;;30.59;36.15;99371.31;5089858;28;20488;-73
2021/08/11 07:43:44;;;;;;;7.53;6.72;;;;;;;30.84;36.14;99397.88;5085487;28;20052;-74
2021/08/11 07:46:09;;;;;;;10.05;6.45;;;;;;;31.22;36.03;99441.03;5070485;28;20078;-75
2021/08/11 07:48:35;;;;;;;9.02;6.40;;;;;;;31.22;36.04;99427.38;5071281;28;20428;-75
2021/08/11 07:51:01;;;;;;;7.35;6.53;;;;;;;31.35;35.17;99445.56;5091552;28;20465;-73
2021/08/11 07:53:27;;;;;;;8.27;6.38;;;;;;;31.53;35.57;99440.94;5087142;28;20032;-74
2021/08/11 07:55:53;;;;;;;7.20;6.60;;;;;;;31.57;35.26;99442.69;5085480;28;20046;-74
2021/08/11 07:58:21;;;;;;;7.13;6.43;;;;;;;31.56;34.89;99438.38;5086199;28;20021;-74
2021/08/11 08:00:46;;;;;;;6.82;5.97;;;;;;;31.67;34.62;99443.50;5088076;28;20035;-74
2021/08/11 08:03:12;;;;;;;8.43;7.63;;;;;;;31.73;34.44;99445.78;5087946;28;20099;-75
2021/08/11 08:05:38;;;;;;;8.63;7.05;;;;;;;31.79;34.10;99436.31;5090354;28;20097;-74
2021/08/11 08:08:03;;;;;;;13.15;9.27;;;;;;;31.72;34.13;99413.34;5076783;28;20029;-74
2021/08/11 08:10:29;;;;;;;12.38;11.25;;;;;;;31.78;34.16;99404.69;5070170;28;20047;-73
2021/08/11 08:12:54;;;;;;;9.30;7.20;;;;;;;32.15;33.50;99441.47;5063411;28;20023;-73
2021/08/11 08:15:19;;;;;;;10.32;6.85;;;;;;;32.25;32.89;99445.00;5090195;28;20164;-74
2021/08/11 08:17:45;;;;;;;10.77;7.18;;;;;;;32.29;32.83;99433.13;5090280;28;20042;-74
2021/08/11 08:20:11;;;;;;;7.50;6.78;;;;;;;32.39;32.97;99430.03;5090343;28;20023;-74
2021/08/11 08:22:37;;;;;;;7.53;6.40;;;;;;;32.48;32.68;99430.00;5090395;28;20465;-74
2021/08/11 08:25:04;;;;;;;7.50;6.78;;;;;;;32.59;32.43;99431.25;5081485;28;20024;-79
2021/08/11 08:27:29;;;;;;;8.45;6.43;;;;;;;32.73;32.21;99429.16;5088160;28;20699;-78
2021/08/11 08:29:57;;;;;;;9.07;6.32;;;;;;;32.41;31.89;99345.00;5089643;28;20495;-78
2021/08/11 08:32:23;;;;;;;7.53;6.53;;;;;;;32.57;31.83;99350.72;5095274;28;20031;-78
2021/08/11 08:34:48;;;;;;;8.20;6.25;;;;;;;32.95;31.60;99402.69;5092613;28;20372;-76
2021/08/11 08:37:37;;;;;;;7.70;6.00;;;;;;;32.79;31.31;99361.44;5075095;28;20020;-79
2021/08/11 08:40:13;;;;;;;6.53;5.90;;;;;;;33.12;30.50;99397.13;5092088;28;20028;-79
2021/08/11 08:42:43;;;;;;;6.90;5.80;;;;;;;33.09;30.76;99397.78;5092743;28;20036;-78
2021/08/11 08:45:10;;;;;;;7.88;7.15;;;;;;;33.14;30.62;99395.66;5092264;28;20028;-78
2021/08/11 08:47:37;;;;;;;11.20;7.22;;;;;;;33.31;30.37;99397.53;5090409;28;20051;-78
2021/08/11 08:50:09;;;;;;;10.68;6.10;;;;;;;33.00;30.00;99331.41;5091393;28;20016;-79
2021/08/11 08:52:36;;;;;;;6.82;5.78;;;;;;;33.41;30.11;99391.66;5092515;28;20036;-79
2021/08/11 08:55:04;;;;;;;16.50;6.72;;;;;;;33.24;29.70;99341.69;5074027;28;20058;-78
2021/08/11 08:57:30;;;;;;;6.20;5.55;;;;;;;33.30;29.87;99343.13;5080605;28;20503;-78
2021/08/11 08:59:56;;;;;;;6.68;5.60;;;;;;;33.22;29.43;99308.38;5090364;28;20020;-78
2021/08/11 09:02:21;;;;;;;9.13;6.00;;;;;;;33.48;28.99;99345.41;5073173;28;20034;-79
2021/08/11 09:04:47;;;;;;;6.72;5.53;;;;;;;33.84;29.27;99378.78;5068974;28;20020;-78
2021/08/11 09:07:20;;;;;;;7.97;5.70;;;;;;;33.73;28.53;99337.31;5073761;28;20040;-78
2021/08/11 09:09:46;;;;;;;6.50;5.70;;;;;;;33.73;28.44;99326.34;5081681;28;20041;-79
2021/08/11 09:12:17;;;;;;;11.77;7.18;;;;;;;33.95;28.35;99328.72;5087223;28;20237;-78
2021/08/11 09:14:46;;;;;;;8.32;6.75;;;;;;;34.37;27.99;99370.53;5090162;28;20024;-78
2021/08/11 09:17:29;;;;;;;5.72;5.05;;;;;;;34.22;27.48;99313.63;5086710;28;20032;-77
2021/08/11 09:19:55;;;;;;;6.60;5.82;;;;;;;34.62;27.30;99346.69;5090223;28;20493;-77
2021/08/11 09:22:20;;;;;;;7.75;6.05;;;;;;;34.82;26.36;99349.66;5090809;28;20028;-78
2021/08/11 09:24:46;;;;;;;7.35;5.55;;;;;;;34.78;27.03;99337.78;5090747;28;20031;-74
2021/08/11 09:27:16;;;;;;;7.40;6.72;;;;;;;35.12;26.63;99362.03;5101845;28;20031;-73
2021/08/11 09:30:04;;;;;;;7.55;5.70;;;;;;;35.26;26.12;99356.16;5072602;28;20457;-76
2021/08/11 09:32:30;;;;;;;8.07;5.53;;;;;;;35.26;25.84;99337.75;5074303;28;20080;-74
2021/08/11 09:34:58;;;;;;;8.15;5.25;;;;;;;35.49;25.84;99349.03;5092258;28;20440;-74
2021/08/11 09:37:40;;;;;;;5.93;4.93;;;;;;;35.49;25.12;99318.03;5092294;28;20038;-74
2021/08/11 09:40:17;;;;;;;9.60;6.13;;;;;;;35.84;25.13;99346.53;5092838;28;20485;-74
2021/08/11 09:42:43;;;;;;;6.32;5.72;;;;;;;35.90;25.19;99339.63;5072508;28;20081;-74
2021/08/11 09:45:10;;;;;;;6.30;5.47;;;;;;;35.73;25.13;99271.25;5084931;28;20409;-73
2021/08/11 09:47:37;;;;;;;8.30;5.72;;;;;;;36.15;25.03;99309.25;5085265;28;20059;-74
2021/08/11 09:50:08;;;;;;;5.88;4.95;;;;;;;36.50;24.58;99318.44;5091462;28;20081;-73
2021/08/11 09:52:53;;;;;;;7.82;5.25;;;;;;;36.44;24.27;99283.31;5090561;28;20081;-75
2021/08/11 09:55:19;;;;;;;6.53;5.85;;;;;;;36.79;24.17;99317.19;5089253;28;20539;-76
2021/08/11 09:57:45;;;;;;;8.13;5.47;;;;;;;36.83;23.67;99307.06;5110429;28;20034;-74
2021/08/11 10:00:14;;;;;;;6.80;5.75;;;;;;;36.91;23.66;99308.00;5091102;28;20476;-76
2021/08/11 10:02:44;;;;;;;10.68;6.45;;;;;;;36.93;23.33;99294.69;5090228;28;20098;-78
2021/08/11 10:05:36;;;;;;;9.38;6.65;;;;;;;37.01;23.48;99304.69;5087849;28;20057;-78
2021/08/11 10:08:02;;;;;;;8.32;5.63;;;;;;;37.18;23.18;99306.25;5111139;28;20032;-78
2021/08/11 10:10:28;;;;;;;6.20;5.60;;;;;;;37.36;23.44;99307.47;5103252;28;20469;-79
2021/08/11 10:12:54;;;;;;;7.57;5.75;;;;;;;37.52;23.31;99316.44;5109548;28;20031;-79
2021/08/11 10:15:20;;;;;;;7.85;5.72;;;;;;;37.71;23.16;99310.13;5111437;28;20027;-78
2021/08/11 10:17:49;;;;;;;8.07;7.28;;;;;;;37.91;23.12;99302.66;5110021;28;20088;-78
2021/08/11 10:20:16;;;;;;;10.35;9.35;;;;;;;38.05;22.80;99305.66;5099429;28;20016;-78
2021/08/11 10:22:43;;;;;;;9.25;6.38;;;;;;;38.15;22.59;99287.75;5087407;28;20023;-79
2021/08/11 10:25:09;;;;;;;9.13;5.95;;;;;;;38.05;22.36;99258.78;5109799;28;20413;-75
2021/08/11 10:27:35;;;;;;;9.38;5.88;;;;;;;38.50;21.64;99284.75;5108587;28;20028;-76
2021/08/11 10:30:01;;;;;;;8.23;7.20;;;;;;;38.57;21.93;99286.81;5110997;28;20024;-73
2021/08/11 10:32:26;;;;;;;8.63;5.47;;;;;;;38.64;21.89;99282.22;5108713;28;20032;-74
2021/08/11 10:34:54;;;;;;;6.55;5.40;;;;;;;38.59;21.82;99243.09;5107572;28;20106;-73
2021/08/11 10:37:23;;;;;;;6.35;5.25;;;;;;;38.89;21.51;99274.34;5107604;28;20044;-75
2021/08/11 10:39:50;;;;;;;8.98;5.80;;;;;;;38.82;21.40;99273.44;5111905;28;20035;-74
2021/08/11 10:42:15;;;;;;;9.07;5.55;;;;;;;38.74;21.10;99275.31;5111773;28;20020;-72
2021/08/11 10:44:43;;;;;;;6.85;5.40;;;;;;;38.55;21.25;99212.69;5092900;28;20071;-75
2021/08/11 10:47:10;;;;;;;6.53;5.60;;;;;;;39.07;20.91;99267.09;5109341;28;20479;-76
2021/08/11 10:49:55;;;;;;;7.30;6.03;;;;;;;39.21;20.61;99260.97;5109582;28;20024;-75
2021/08/11 10:52:21;;;;;;;7.55;6.88;;;;;;;39.12;20.40;99232.03;5091082;28;20027;-76
2021/08/11 10:54:53;;;;;;;10.70;8.45;;;;;;;39.46;19.95;99258.50;5098592;28;20022;-75
2021/08/11 10:57:34;;;;;;;8.45;7.65;;;;;;;39.64;19.58;99247.66;5099033;28;20036;-73
2021/08/11 10:59:59;;;;;;;;;;;;;;;39.66;20.08;99257.16;5111394;28;20488;-74
2021/08/11 11:02:37;;;;;;;9.85;8.85;;;;;;;39.72;19.32;99244.59;5106704;28;19973;-74
2021/08/11 11:05:03;;;;;;;6.93;5.85;;;;;;;39.75;19.58;99240.28;5107133;28;20027;-76
2021/08/11 11:07:28;;;;;;;7.13;5.20;;;;;;;39.73;19.68;99228.81;5107176;28;20510;-76
2021/08/11 11:10:24;;;;;;;9.13;6.35;;;;;;;39.85;19.13;99225.75;5107090;28;20028;-73
2021/08/11 11:12:50;;;;;;;8.73;6.50;;;;;;;39.72;19.47;99235.50;5110955;28;20080;-75
2021/08/11 11:15:15;;;;;;;9.00;6.78;;;;;;;39.88;19.34;99225.00;5111156;28;20019;-73
2021/08/11 11:18:20;;;;;;;11.60;7.85;;;;;;;39.86;19.33;99218.25;5111146;28;20054;-75
2021/08/11 11:21:07;;;;;;;8.63;7.10;;;;;;;39.92;19.38;99222.25;5110302;28;20098;-75
2021/08/11 11:23:44;;;;;;;7.75;5.72;;;;;;;40.15;17.99;99213.78;5097602;28;20071;-78
2021/08/11 11:26:15;;;;;;;8.45;6.20;;;;;;;40.10;18.72;99187.25;5107534;28;20117;-78
2021/08/11 11:29:02;;;;;;;8.18;5.60;;;;;;;40.27;17.94;99199.66;5109821;28;20034;-76
2021/08/11 11:31:47;;;;;;;7.18;6.47;;;;;;;40.45;17.98;99197.81;5102487;28;20084;-79